Time;durP1;ratioP1;P1;durP2;ratioP2;P2;SDS_P1;SDS_P2;PMS_P1;PMS_P2;Temp;Humidity;BMP_temperature;BMP_pressure;BME280_temperature;BME280_humidity;BME280_pressure;Samples;Min_cycle;Max_cycle;Signal;HPM_P1;HPM_P2
2023/03/14 00:00:16;;;;;;;;;;;;;;;-144.99;85.91;52509.25;5032709;28;19970;-72
2023/03/14 00:02:43;;;;;;;;;;;;;;;-144.99;85.45;52501.09;5028892;28;19944;-72
2023/03/14 00:05:10;;;;;;;;;;;;;;;-144.99;84.97;52468.47;5031032;28;19967;-72
2023/03/14 00:07:37;;;;;;;;;;;;;;;-144.99;86.27;52492.94;5032059;28;19958;-72
2023/03/14 00:10:05;;;;;;;;;;;;;;;-144.99;86.39;52480.72;5026065;28;19997;-70
2023/03/14 00:12:32;;;;;;;;;;;;;;;-144.99;85.63;52492.94;5026694;28;19941;-69
2023/03/14 00:15:03;;;;;;;;;;;;;;;-144.99;85.94;52484.78;5032435;28;19953;-67
2023/03/14 00:17:29;;;;;;;;;;;;;;;-144.99;85.49;52464.41;5033338;28;19939;-68
2023/03/14 00:19:56;;;;;;;;;;;;;;;-144.99;86.17;52458.28;5033645;28;19950;-68
2023/03/14 00:22:22;;;;;;;;;;;;;;;-144.99;86.36;52517.41;5031236;28;20090;-67
2023/03/14 00:24:49;;;;;;;;;;;;;;;-144.99;86.53;52503.13;5016111;28;19979;-66
2023/03/14 00:27:15;;;;;;;;;;;;;;;-144.99;86.71;52490.91;5021853;28;20014;-65
2023/03/14 00:29:43;;;;;;;;;;;;;;;-144.99;86.91;52486.81;5023097;28;20385;-66
2023/03/14 00:32:11;;;;;;;;;;;;;;;-144.99;86.88;52494.97;5029634;28;20404;-67
2023/03/14 00:34:38;;;;;;;;;;;;;;;-144.99;88.03;52488.84;5030238;28;19968;-67
2023/03/14 00:37:04;;;;;;;;;;;;;;;-144.99;88.51;52529.63;5023540;28;20010;-66
2023/03/14 00:39:31;;;;;;;;;;;;;;;-144.99;88.07;52482.75;5023281;28;19949;-66
2023/03/14 00:41:57;;;;;;;;;;;;;;;-144.99;89.44;52484.78;5032226;28;19944;-66
2023/03/14 00:44:24;;;;;;;;;;;;;;;-144.99;89.62;52501.09;5019776;28;20358;-66
2023/03/14 00:46:51;;;;;;;;;;;;;;;-144.99;89.41;52505.16;5025879;28;20499;-66
2023/03/14 00:49:19;;;;;;;;;;;;;;;-144.99;89.44;52507.19;5026427;28;19940;-66
2023/03/14 00:51:45;;;;;;;;;;;;;;;-144.99;89.67;52517.41;5030225;28;19995;-67
2023/03/14 00:54:12;;;;;;;;;;;;;;;-144.99;89.67;52501.09;5030038;28;20471;-68
2023/03/14 00:56:38;;;;;;;;;;;;;;;-144.99;89.29;52490.91;5027107;28;19943;-67
2023/03/14 00:59:05;;;;;;;;;;;;;;;-144.99;89.16;52525.56;5024392;28;19994;-67
2023/03/14 01:01:31;;;;;;;;;;;;;;;-144.99;88.47;52501.09;5029658;28;19925;-67
2023/03/14 01:03:58;;;;;;;;;;;;;;;-144.99;88.52;52509.25;5030125;28;19958;-68
2023/03/14 01:06:27;;;;;;;;;;;;;;;-144.99;87.39;52472.56;5025789;28;19966;-70
2023/03/14 01:08:54;;;;;;;;;;;;;;;-144.99;87.29;52480.72;5029482;28;19965;-69
2023/03/14 01:11:21;;;;;;;;;;;;;;;-144.99;87.89;52503.13;5029703;28;20427;-70
2023/03/14 01:13:48;;;;;;;;;;;;;;;-144.99;87.49;52466.44;5024698;28;19941;-70
2023/03/14 01:16:15;;;;;;;;;;;;;;;-144.99;87.60;52492.94;5026300;28;19959;-70
2023/03/14 01:18:43;;;;;;;;;;;;;;;-144.99;88.56;52494.97;5029393;28;19990;-71
2023/03/14 01:21:14;;;;;;;;;;;;;;;-144.99;88.60;52476.63;5027438;28;20039;-70
2023/03/14 01:23:42;;;;;;;;;;;;;;;-144.99;88.01;52476.63;5022418;28;19983;-67
2023/03/14 01:26:10;;;;;;;;;;;;;;;-144.99;88.55;52478.66;5029663;28;20084;-65
2023/03/14 01:28:36;;;;;;;;;;;;;;;-144.99;88.37;52488.84;5023397;28;19988;-65
2023/03/14 01:31:03;;;;;;;;;;;;;;;-144.99;87.94;52472.56;5023860;28;20103;-65
2023/03/14 01:33:30;;;;;;;;;;;;;;;-144.99;88.86;52497.00;5028228;28;20068;-65
2023/03/14 01:35:56;;;;;;;;;;;;;;;-144.99;88.28;52492.94;5029391;28;20029;-65
2023/03/14 01:38:23;;;;;;;;;;;;;;;-144.99;88.81;52480.72;5029752;28;19997;-65
2023/03/14 01:40:51;;;;;;;;;;;;;;;-144.99;88.64;52517.41;5027125;28;19946;-65
2023/03/14 01:43:19;;;;;;;;;;;;;;;-144.99;88.44;52488.84;5028971;28;20006;-65
2023/03/14 01:46:13;;;;;;;;;;;;;;;-144.99;88.56;52497.00;5027049;28;20003;-65
2023/03/14 01:48:43;;;;;;;;;;;;;;;-144.99;88.93;52474.59;5026411;28;19925;-65
2023/03/14 01:51:10;;;;;;;;;;;;;;;-144.99;88.41;52439.94;5023498;28;20005;-65
2023/03/14 01:53:38;;;;;;;;;;;;;;;-144.99;88.24;52488.84;5025958;28;20026;-65
2023/03/14 01:56:06;;;;;;;;;;;;;;;-144.99;88.92;52505.16;5030575;28;20134;-66
2023/03/14 01:58:34;;;;;;;;;;;;;;;-144.99;88.50;52547.97;5029939;28;19964;-69
2023/03/14 02:01:02;;;;;;;;;;;;;;;-144.99;88.52;52509.25;5024906;28;19944;-69
2023/03/14 02:03:29;;;;;;;;;;;;;;;-144.99;85.67;52448.09;5028419;28;20070;-69
2023/03/14 02:05:58;;;;;;;;;;;;;;;-144.99;86.68;52503.13;5028648;28;19957;-67
2023/03/14 02:08:25;;;;;;;;;;;;;;;-144.99;87.39;52492.94;5025756;28;19945;-68
2023/03/14 02:10:52;;;;;;;;;;;;;;;-144.99;87.84;52468.47;5028016;28;20469;-69
2023/03/14 02:13:21;;;;;;;;;;;;;;;-144.99;88.29;52497.00;5026086;28;19963;-68
2023/03/14 02:15:47;;;;;;;;;;;;;;;-144.99;88.63;52490.91;5026518;28;19957;-68
2023/03/14 02:18:15;;;;;;;;;;;;;;;-144.99;88.74;52509.25;5028211;28;19943;-68
2023/03/14 02:20:46;;;;;;;;;;;;;;;-144.99;87.77;52476.63;5028079;28;19991;-68
2023/03/14 02:23:15;;;;;;;;;;;;;;;-144.99;88.70;52458.28;5021719;28;20010;-67
2023/03/14 02:25:44;;;;;;;;;;;;;;;-144.99;88.93;52484.78;5027047;28;20025;-68
2023/03/14 02:28:12;;;;;;;;;;;;;;;-144.99;88.64;52492.94;5026677;28;19944;-68
2023/03/14 02:30:39;;;;;;;;;;;;;;;-144.99;89.00;52505.16;5025960;28;20431;-68
2023/03/14 02:33:08;;;;;;;;;;;;;;;-144.99;90.42;52478.66;5019953;28;20054;-66
2023/03/14 02:35:36;;;;;;;;;;;;;;;-144.99;91.11;52527.59;5028269;28;20060;-66
2023/03/14 02:38:08;;;;;;;;;;;;;;;-144.99;91.74;52464.41;5027612;28;19925;-66
2023/03/14 02:40:36;;;;;;;;;;;;;;;-144.99;92.19;52460.31;5026815;28;20139;-66
2023/03/14 02:43:03;;;;;;;;;;;;;;;-144.99;92.80;52474.59;5023119;28;20006;-66
2023/03/14 02:45:50;;;;;;;;;;;;;;;-144.99;93.21;52492.94;5027826;28;19968;-66
2023/03/14 02:48:19;;;;;;;;;;;;;;;-144.99;93.57;52462.34;5023204;28;19992;-66
2023/03/14 02:50:47;;;;;;;;;;;;;;;-144.99;93.49;52450.13;5028992;28;20007;-67
2023/03/14 02:53:16;;;;;;;;;;;;;;;-144.99;93.82;52480.72;5030603;28;20045;-64
2023/03/14 02:55:45;;;;;;;;;;;;;;;-144.99;93.38;52484.78;5027862;28;19966;-64
2023/03/14 02:58:11;;;;;;;;;;;;;;;-144.99;94.24;52456.25;5027357;28;19967;-63
2023/03/14 03:00:38;;;;;;;;;;;;;;;-144.99;93.38;52521.47;5027606;28;20017;-64
2023/03/14 03:03:05;;;;;;;;;;;;;;;-144.99;92.48;52472.56;5025985;28;19976;-64
2023/03/14 03:05:33;;;;;;;;;;;;;;;-144.99;92.39;52456.25;5028642;28;20054;-64
2023/03/14 03:08:00;;;;;;;;;;;;;;;-144.99;92.52;52492.94;5026052;28;19929;-63
2023/03/14 03:10:27;;;;;;;;;;;;;;;-144.99;94.23;52462.34;5029513;28;19967;-63
2023/03/14 03:12:54;;;;;;;;;;;;;;;-144.99;94.31;52480.72;5027217;28;19971;-62
2023/03/14 03:15:20;;;;;;;;;;;;;;;-144.99;94.87;52466.44;5022350;28;19959;-64
2023/03/14 03:17:47;;;;;;;;;;;;;;;-144.99;95.24;52470.50;5025166;28;20459;-65
2023/03/14 03:20:13;;;;;;;;;;;;;;;-144.99;95.78;52452.16;5022806;28;19951;-65
2023/03/14 03:22:41;;;;;;;;;;;;;;;-144.99;95.88;52492.94;5021511;28;20483;-63
2023/03/14 03:25:08;;;;;;;;;;;;;;;-144.99;95.54;52501.09;5020395;28;19925;-65
2023/03/14 03:27:36;;;;;;;;;;;;;;;-144.99;96.48;52476.63;5030659;28;19987;-64
2023/03/14 03:30:03;;;;;;;;;;;;;;;-144.99;96.49;52505.16;5028976;28;19929;-63
2023/03/14 03:32:30;;;;;;;;;;;;;;;-144.99;95.72;52480.72;5026858;28;20058;-65
2023/03/14 03:34:56;;;;;;;;;;;;;;;-144.99;95.32;52448.09;5027139;28;20606;-67
2023/03/14 03:37:23;;;;;;;;;;;;;;;-144.99;93.35;52478.66;5018525;28;19982;-68
2023/03/14 03:39:52;;;;;;;;;;;;;;;-144.99;93.37;52478.66;5018455;28;20298;-67
2023/03/14 03:42:19;;;;;;;;;;;;;;;-144.99;93.30;52466.44;5027251;28;20013;-66
2023/03/14 03:44:45;;;;;;;;;;;;;;;-144.99;94.58;52460.31;5019554;28;20376;-66
2023/03/14 03:47:12;;;;;;;;;;;;;;;-144.99;94.69;52456.25;5021062;28;19982;-66
2023/03/14 03:49:38;;;;;;;;;;;;;;;-144.99;95.28;52501.09;5025887;28;19952;-67
2023/03/14 03:52:05;;;;;;;;;;;;;;;-144.99;94.97;52476.63;5027284;28;20387;-71
2023/03/14 03:54:31;;;;;;;;;;;;;;;-144.99;94.99;52439.94;5027553;28;20014;-71
2023/03/14 03:56:59;;;;;;;;;;;;;;;-144.99;95.16;52466.44;5027881;28;19999;-69
2023/03/14 03:59:26;;;;;;;;;;;;;;;-144.99;94.85;52446.06;5027023;28;19992;-65
2023/03/14 04:01:52;;;;;;;;;;;;;;;-144.99;94.49;52486.81;5026958;28;19971;-68
2023/03/14 04:04:19;;;;;;;;;;;;;;;-144.99;94.85;52460.31;5026671;28;19957;-67
2023/03/14 04:06:45;;;;;;;;;;;;;;;-144.99;95.82;52476.63;5014453;28;19959;-67
2023/03/14 04:09:12;;;;;;;;;;;;;;;-144.99;97.72;52476.63;5020869;28;19977;-68
2023/03/14 04:11:39;;;;;;;;;;;;;;;-144.99;99.08;52460.31;5026376;28;19981;-67
2023/03/14 04:14:07;;;;;;;;;;;;;;;-144.99;100.00;52482.75;5026140;28;20039;-67
2023/03/14 04:16:33;;;;;;;;;;;;;;;-144.99;100.00;52484.78;5024755;28;19943;-67
2023/03/14 04:19:00;;;;;;;;;;;;;;;-144.99;100.00;52472.56;5018340;28;20006;-67
2023/03/14 04:21:26;;;;;;;;;;;;;;;-144.99;100.00;52468.47;5026558;28;19983;-67
2023/03/14 04:23:53;;;;;;;;;;;;;;;-144.99;100.00;52472.56;5024943;28;19998;-66
2023/03/14 04:26:20;;;;;;;;;;;;;;;-144.99;100.00;52513.31;5022869;28;20008;-67
2023/03/14 04:28:46;;;;;;;;;;;;;;;-144.99;100.00;52484.78;5029170;28;20035;-68
2023/03/14 04:31:15;;;;;;;;;;;;;;;-144.99;100.00;52497.00;5030446;28;20364;-68
2023/03/14 04:33:42;;;;;;;;;;;;;;;-144.99;100.00;52541.84;5030247;28;19997;-68
2023/03/14 04:36:09;;;;;;;;;;;;;;;-144.99;100.00;52480.72;5020748;28;20043;-66
2023/03/14 04:38:36;;;;;;;;;;;;;;;-144.99;100.00;52511.28;5028003;28;20036;-64
2023/03/14 04:41:02;;;;;;;;;;;;;;;-144.99;100.00;52488.84;5029365;28;20337;-64
2023/03/14 04:43:29;;;;;;;;;;;;;;;-144.99;100.00;52525.56;5029894;28;20380;-64
2023/03/14 04:45:56;;;;;;;;;;;;;;;-144.99;100.00;52509.25;5024136;28;20365;-64
2023/03/14 04:48:24;;;;;;;;;;;;;;;-144.99;100.00;52484.78;5031005;28;20040;-64
2023/03/14 04:50:50;;;;;;;;;;;;;;;-144.99;100.00;52533.69;5027065;28;19991;-64
2023/03/14 04:53:17;;;;;;;;;;;;;;;-144.99;100.00;52492.94;5030337;28;20436;-64
2023/03/14 04:55:48;;;;;;;;;;;;;;;-144.99;100.00;52513.31;5029502;28;19999;-70
2023/03/14 04:58:14;;;;;;;;;;;;;;;-144.99;100.00;52478.66;5029729;28;20001;-70
2023/03/14 05:00:41;;;;;;;;;;;;;;;-144.99;100.00;52484.78;5029592;28;20337;-71
2023/03/14 05:03:07;;;;;;;;;;;;;;;-144.99;100.00;52488.84;5022069;28;19972;-71
2023/03/14 05:05:35;;;;;;;;;;;;;;;-144.99;100.00;52476.63;5029219;28;20382;-71
2023/03/14 05:08:01;;;;;;;;;;;;;;;-144.99;100.00;52468.47;5025908;28;20136;-71
2023/03/14 05:10:28;;;;;;;;;;;;;;;-144.99;100.00;52468.47;5025516;28;20005;-71
2023/03/14 05:12:55;;;;;;;;;;;;;;;-144.99;100.00;52476.63;5030549;28;19940;-65
2023/03/14 05:15:21;;;;;;;;;;;;;;;-144.99;100.00;52476.63;5026031;28;20444;-65
2023/03/14 05:17:48;;;;;;;;;;;;;;;-144.99;100.00;52497.00;5029248;28;19937;-64
2023/03/14 05:20:16;;;;;;;;;;;;;;;-144.99;100.00;52499.06;5028745;28;19959;-63
2023/03/14 05:22:43;;;;;;;;;;;;;;;-144.99;100.00;52505.16;5033200;28;19976;-65
2023/03/14 05:25:10;;;;;;;;;;;;;;;-144.99;100.00;52503.13;5031189;28;20066;-74
2023/03/14 05:27:37;;;;;;;;;;;;;;;-144.99;100.00;52517.41;5019641;28;19942;-70
2023/03/14 05:30:04;;;;;;;;;;;;;;;-144.99;100.00;52460.31;5020406;28;20050;-72
2023/03/14 05:32:30;;;;;;;;;;;;;;;-144.99;100.00;52476.63;5028321;28;20371;-70
2023/03/14 05:34:59;;;;;;;;;;;;;;;-144.99;100.00;52501.09;5022534;28;19961;-71
2023/03/14 05:37:25;;;;;;;;;;;;;;;-144.99;100.00;52468.47;5020370;28;19925;-70
2023/03/14 05:39:53;;;;;;;;;;;;;;;-144.99;100.00;52499.06;5028408;28;19937;-70
2023/03/14 05:42:20;;;;;;;;;;;;;;;-144.99;100.00;52492.94;5029418;28;20038;-72
2023/03/14 05:44:47;;;;;;;;;;;;;;;-144.99;100.00;52484.78;5027989;28;19953;-70
2023/03/14 05:47:14;;;;;;;;;;;;;;;-144.99;100.00;52529.63;5029150;28;20017;-70
2023/03/14 05:49:40;;;;;;;;;;;;;;;-144.99;100.00;52513.31;5028309;28;20339;-71
2023/03/14 05:52:07;;;;;;;;;;;;;;;-144.99;100.00;52488.84;5028979;28;20042;-70
2023/03/14 05:54:33;;;;;;;;;;;;;;;-144.99;100.00;52452.16;5019779;28;20438;-71
2023/03/14 05:57:01;;;;;;;;;;;;;;;-144.99;100.00;52456.25;5029151;28;20460;-68
2023/03/14 05:59:28;;;;;;;;;;;;;;;-144.99;100.00;52472.56;5028670;28;19996;-69
2023/03/14 06:01:54;;;;;;;;;;;;;;;-144.99;100.00;52480.72;5028935;28;19941;-70
2023/03/14 06:04:21;;;;;;;;;;;;;;;-144.99;100.00;52497.00;5028154;28;20434;-69
2023/03/14 06:06:47;;;;;;;;;;;;;;;-144.99;100.00;52547.97;5019003;28;19996;-68
2023/03/14 06:09:14;;;;;;;;;;;;;;;-144.99;100.00;52484.78;5026147;28;19950;-69
2023/03/14 06:11:40;;;;;;;;;;;;;;;-144.99;100.00;52480.72;5027044;28;19942;-71
2023/03/14 06:14:08;;;;;;;;;;;;;;;-144.99;100.00;52488.84;5026953;28;19946;-69
2023/03/14 06:16:35;;;;;;;;;;;;;;;-144.99;100.00;52511.28;5026714;28;19956;-67
2023/03/14 06:19:01;;;;;;;;;;;;;;;-144.99;100.00;52480.72;5028147;28;19941;-67
2023/03/14 06:21:28;;;;;;;;;;;;;;;-144.99;100.00;52484.78;5028415;28;19988;-67
2023/03/14 06:23:54;;;;;;;;;;;;;;;-144.99;100.00;52501.09;5024758;28;20368;-67
2023/03/14 06:26:21;;;;;;;;;;;;;;;-144.99;100.00;52517.41;5028592;28;19978;-68
2023/03/14 06:28:48;;;;;;;;;;;;;;;-144.99;100.00;52478.66;5028142;28;20381;-74
2023/03/14 06:31:23;;;;;;;;;;;;;;;-144.99;100.00;52450.13;4573998;28;10000643;-74
2023/03/14 06:33:49;;;;;;;;;;;;;;;-144.99;100.00;52488.84;5023056;28;20657;-72
2023/03/14 06:36:16;;;;;;;;;;;;;;;-144.99;100.00;52444.03;5025631;28;19965;-73
2023/03/14 06:38:42;;;;;;;;;;;;;;;-144.99;100.00;52464.41;5023774;28;20105;-74
2023/03/14 06:41:10;;;;;;;;;;;;;;;-144.99;100.00;52452.16;5025829;28;19955;-74
2023/03/14 06:43:36;;;;;;;;;;;;;;;-144.99;100.00;52456.25;5027267;28;20049;-74
2023/03/14 06:46:03;;;;;;;;;;;;;;;-144.99;100.00;52460.31;5025760;28;20048;-74
2023/03/14 06:48:30;;;;;;;;;;;;;;;-144.99;100.00;52468.47;5021452;28;20267;-73
2023/03/14 06:50:57;;;;;;;;;;;;;;;-144.99;100.00;52470.50;5025440;28;20358;-74
2023/03/14 06:53:24;;;;;;;;;;;;;;;-144.99;100.00;52458.28;5024851;28;19959;-74
2023/03/14 06:55:50;;;;;;;;;;;;;;;-144.99;100.00;52468.47;5025875;28;20005;-74
2023/03/14 06:58:17;;;;;;;;;;;;;;;-144.99;100.00;52452.16;5024691;28;19940;-74
2023/03/14 07:00:44;;;;;;;;;;;;;;;-144.99;100.00;52462.34;5016753;28;20008;-74
2023/03/14 07:03:11;;;;;;;;;;;;;;;-144.99;100.00;52423.63;5020305;28;19990;-74
2023/03/14 07:05:40;;;;;;;;;;;;;;;-144.99;100.00;52468.47;5023799;28;19970;-74
2023/03/14 07:08:06;;;;;;;;;;;;;;;-144.99;100.00;52497.00;5025334;28;20438;-74
2023/03/14 07:10:33;;;;;;;;;;;;;;;-144.99;100.00;52466.44;5024252;28;19950;-73
2023/03/14 07:13:00;;;;;;;;;;;;;;;-144.99;100.00;52466.44;5022402;28;19959;-74
2023/03/14 07:15:26;;;;;;;;;;;;;;;-144.99;100.00;52437.91;5025104;28;20327;-74
2023/03/14 07:17:53;;;;;;;;;;;;;;;-144.99;100.00;52460.31;5024139;28;19984;-73
2023/03/14 07:20:19;;;;;;;;;;;;;;;-144.99;100.00;52480.72;5025143;28;19940;-74
2023/03/14 07:22:49;;;;;;;;;;;;;;;-144.99;100.00;52427.72;5020336;28;20342;-74
2023/03/14 07:25:16;;;;;;;;;;;;;;;-144.99;100.00;52450.13;5021050;28;19969;-74
2023/03/14 07:27:43;;;;;;;;;;;;;;;-144.99;100.00;52464.41;5023443;28;20012;-74
2023/03/14 07:30:11;;;;;;;;;;;;;;;-144.99;100.00;52431.78;5019746;28;20355;-74
2023/03/14 07:32:37;;;;;;;;;;;;;;;-144.99;100.00;52464.41;5023492;28;20605;-74
2023/03/14 07:35:04;;;;;;;;;;;;;;;-144.99;100.00;52452.16;5024558;28;20049;-74
2023/03/14 07:37:30;;;;;;;;;;;;;;;-144.99;100.00;52464.41;5015692;28;19975;-74
2023/03/14 07:39:58;;;;;;;;;;;;;;;-144.99;100.00;52488.84;5023046;28;19942;-74
2023/03/14 07:42:25;;;;;;;;;;;;;;;-144.99;100.00;52452.16;5023727;28;19973;-74
2023/03/14 07:44:51;;;;;;;;;;;;;;;-144.99;100.00;52456.25;5024106;28;20323;-73
2023/03/14 07:47:18;;;;;;;;;;;;;;;-144.99;100.00;52452.16;5023916;28;20009;-75
2023/03/14 07:49:44;;;;;;;;;;;;;;;-144.99;100.00;52456.25;5023279;28;19986;-74
2023/03/14 07:52:11;;;;;;;;;;;;;;;-144.99;100.00;52419.56;5019326;28;19952;-73
2023/03/14 07:54:37;;;;;;;;;;;;;;;-144.99;99.81;52423.63;5022013;28;20395;-73
2023/03/14 07:57:05;;;;;;;;;;;;;;;-144.99;98.74;52472.56;5024384;28;19964;-73
2023/03/14 07:59:32;;;;;;;;;;;;;;;-144.99;96.46;52427.72;5025513;28;20007;-74
2023/03/14 08:01:58;;;;;;;;;;;;;;;-144.99;95.60;52482.75;5028492;28;19953;-74
2023/03/14 08:04:27;;;;;;;;;;;;;;;-144.99;95.31;52472.56;5028259;28;19961;-74
2023/03/14 08:06:54;;;;;;;;;;;;;;;-144.99;95.39;52452.16;5022122;28;20391;-75
2023/03/14 08:09:20;;;;;;;;;;;;;;;-144.99;95.51;52448.09;5026598;28;20393;-74
2023/03/14 08:11:47;;;;;;;;;;;;;;;-144.99;95.32;52452.16;5031304;28;20423;-74
2023/03/14 08:14:15;;;;;;;;;;;;;;;-144.99;94.98;52437.91;5029877;28;20021;-74
2023/03/14 08:16:41;;;;;;;;;;;;;;;-144.99;94.95;52435.88;5023656;28;19944;-73
2023/03/14 08:19:08;;;;;;;;;;;;;;;-144.99;96.13;52474.59;5030508;28;19998;-74
2023/03/14 08:21:35;;;;;;;;;;;;;;;-144.99;96.74;52448.09;5028932;28;19929;-72
2023/03/14 08:24:01;;;;;;;;;;;;;;;-144.99;95.75;52464.41;5030483;28;19948;-73
2023/03/14 08:26:28;;;;;;;;;;;;;;;-144.99;94.55;52464.41;5020809;28;20031;-74
2023/03/14 08:28:54;;;;;;;;;;;;;;;-144.99;95.41;52480.72;5029884;28;19947;-74
2023/03/14 08:31:22;;;;;;;;;;;;;;;-144.99;95.75;52476.63;5024921;28;20485;-73
2023/03/14 08:33:49;;;;;;;;;;;;;;;-144.99;96.00;52476.63;5032406;28;19947;-75
2023/03/14 08:36:15;;;;;;;;;;;;;;;-144.99;96.92;52464.41;5029889;28;20397;-73
2023/03/14 08:38:42;;;;;;;;;;;;;;;-144.99;97.32;52490.91;5031035;28;19956;-73
2023/03/14 08:41:09;;;;;;;;;;;;;;;-144.99;98.15;52439.94;5036123;28;20028;-74
2023/03/14 08:43:36;;;;;;;;;;;;;;;-144.99;98.46;52470.50;5027773;28;19956;-75
2023/03/14 08:46:03;;;;;;;;;;;;;;;-144.99;99.03;52456.25;5029686;28;19963;-74
2023/03/14 08:48:31;;;;;;;;;;;;;;;-144.99;99.59;52484.78;5028410;28;19960;-74
2023/03/14 08:50:58;;;;;;;;;;;;;;;-144.99;99.74;52439.94;5029026;28;20018;-74
2023/03/14 08:53:24;;;;;;;;;;;;;;;-144.99;100.00;52466.44;5021281;28;19985;-72
2023/03/14 08:55:53;;;;;;;;;;;;;;;-144.99;100.00;52505.16;5028624;28;20200;-73
2023/03/14 08:58:20;;;;;;;;;;;;;;;-144.99;100.00;52492.94;5028715;28;19951;-75
2023/03/14 09:00:46;;;;;;;;;;;;;;;-144.99;100.00;52484.78;5027601;28;19953;-74
2023/03/14 09:03:14;;;;;;;;;;;;;;;-144.99;100.00;52464.41;5023594;28;20021;-74
2023/03/14 09:05:42;;;;;;;;;;;;;;;-144.99;100.00;52472.56;5027379;28;19937;-74
2023/03/14 09:08:08;;;;;;;;;;;;;;;-144.99;100.00;52488.84;5026056;28;20088;-74
2023/03/14 09:10:35;;;;;;;;;;;;;;;-144.99;100.00;52458.28;5027063;28;20535;-74
2023/03/14 09:13:01;;;;;;;;;;;;;;;-144.99;100.00;52468.47;5029154;28;19948;-74
2023/03/14 09:15:28;;;;;;;;;;;;;;;-144.99;100.00;52456.25;5023947;28;20459;-73
2023/03/14 09:17:54;;;;;;;;;;;;;;;-144.99;100.00;52448.09;5026251;28;20082;-74
2023/03/14 09:20:21;;;;;;;;;;;;;;;-144.99;100.00;52484.78;5025840;28;20481;-74
2023/03/14 09:22:49;;;;;;;;;;;;;;;-144.99;100.00;52476.63;5025420;28;19992;-73
2023/03/14 09:25:15;;;;;;;;;;;;;;;-144.99;100.00;52517.41;5026548;28;20239;-73
2023/03/14 09:27:42;;;;;;;;;;;;;;;-144.99;100.00;52476.63;5026034;28;20010;-73
2023/03/14 09:30:09;;;;;;;;;;;;;;;-144.99;100.00;52472.56;5028784;28;19953;-74
2023/03/14 09:32:36;;;;;;;;;;;;;;;-144.99;100.00;52478.66;5019804;28;19929;-74
2023/03/14 09:35:02;;;;;;;;;;;;;;;-144.99;100.00;52492.94;5020920;28;19967;-74
2023/03/14 09:37:29;;;;;;;;;;;;;;;-144.99;100.00;52505.16;5024719;28;20361;-74
2023/03/14 09:39:57;;;;;;;;;;;;;;;-144.99;100.00;52456.25;5023636;28;19968;-75
2023/03/14 09:42:26;;;;;;;;;;;;;;;-144.99;100.00;52484.78;5018159;28;19941;-74
2023/03/14 09:44:55;;;;;;;;;;;;;;;-144.99;100.00;52462.34;5022605;28;19961;-74
2023/03/14 09:47:24;;;;;;;;;;;;;;;-144.99;100.00;52505.16;5025526;28;20051;-75
2023/03/14 09:49:50;;;;;;;;;;;;;;;-144.99;100.00;52523.50;5023245;28;20322;-74
2023/03/14 09:52:20;;;;;;;;;;;;;;;-144.99;100.00;52492.94;5025174;28;19987;-75
2023/03/14 09:54:48;;;;;;;;;;;;;;;-144.99;100.00;52545.94;5025953;28;19963;-74
2023/03/14 09:57:17;;;;;;;;;;;;;;;-144.99;100.00;52486.81;5021207;28;20143;-73
2023/03/14 09:59:45;;;;;;;;;;;;;;;-144.99;100.00;52513.31;5025474;28;19946;-74
2023/03/14 10:02:14;;;;;;;;;;;;;;;-144.99;99.93;52488.84;5023424;28;19973;-74
2023/03/14 10:04:44;;;;;;;;;;;;;;;-144.99;99.50;52550.00;5025665;28;20458;-74
2023/03/14 10:07:14;;;;;;;;;;;;;;;-144.99;99.20;52513.31;5024186;28;20499;-74
2023/03/14 10:09:41;;;;;;;;;;;;;;;-144.99;98.26;52505.16;5023042;28;19945;-75
2023/03/14 10:12:09;;;;;;;;;;;;;;;-144.99;96.85;52503.13;5025645;28;20483;-74
2023/03/14 10:14:38;;;;;;;;;;;;;;;-144.99;95.90;52537.78;5020715;28;19963;-73
2023/03/14 10:17:06;;;;;;;;;;;;;;;-144.99;96.16;52513.31;5020603;28;19945;-74
2023/03/14 10:19:32;;;;;;;;;;;;;;;-144.99;95.06;52505.16;5024491;28;20000;-74
2023/03/14 10:22:01;;;;;;;;;;;;;;;-144.99;94.18;52482.75;5024540;28;19961;-74
2023/03/14 10:24:29;;;;;;;;;;;;;;;-144.99;93.89;52531.66;5024941;28;19925;-74
2023/03/14 10:27:01;;;;;;;;;;;;;;;-144.99;94.34;52468.47;5025430;28;19931;-74
2023/03/14 10:29:27;;;;;;;;;;;;;;;-144.99;94.23;52521.47;5030206;28;20020;-74
2023/03/14 10:31:58;;;;;;;;;;;;;;;-144.99;94.88;52505.16;5025295;28;20068;-75
2023/03/14 10:34:26;;;;;;;;;;;;;;;-144.99;95.04;52558.16;5018931;28;19983;-75
2023/03/14 10:36:56;;;;;;;;;;;;;;;-144.99;94.85;52501.09;5019572;28;20336;-75
2023/03/14 10:39:43;;;;;;;;;;;;;;;-144.99;94.71;52509.25;5022542;28;19964;-74
2023/03/14 10:42:14;;;;;;;;;;;;;;;-144.99;93.18;52525.56;5020058;28;20402;-74
2023/03/14 10:44:41;;;;;;;;;;;;;;;-144.99;92.07;52527.59;5015989;28;19929;-74
2023/03/14 10:47:16;;;;;;;;;;;;;;;-144.99;92.12;52582.63;5025579;28;19967;-74
2023/03/14 10:49:42;;;;;;;;;;;;;;;-144.99;92.38;52484.78;5025090;28;19991;-74
2023/03/14 10:52:14;;;;;;;;;;;;;;;-144.99;92.56;52529.63;5025270;28;19981;-74
2023/03/14 10:54:41;;;;;;;;;;;;;;;-144.99;92.40;52497.00;5018481;28;19966;-74
2023/03/14 10:57:08;;;;;;;;;;;;;;;-144.99;92.31;52476.63;5021229;28;19963;-74
2023/03/14 10:59:36;;;;;;;;;;;;;;;-144.99;92.51;52533.69;5012704;28;20267;-73
2023/03/14 11:02:07;;;;;;;;;;;;;;;-144.99;91.64;52505.16;5016760;28;20460;-74
2023/03/14 11:04:47;;;;;;;;;;;;;;;-144.99;90.41;52501.09;5024204;28;20007;-73
2023/03/14 11:07:19;;;;;;;;;;;;;;;-144.99;89.15;52545.94;5024647;28;19941;-75
2023/03/14 11:09:50;;;;;;;;;;;;;;;-144.99;88.54;52529.63;5020636;28;19936;-74
2023/03/14 11:12:26;;;;;;;;;;;;;;;-144.99;88.36;52476.63;5020729;28;19937;-76
2023/03/14 11:14:55;;;;;;;;;;;;;;;-144.99;87.84;52501.09;5019621;28;20406;-74
2023/03/14 11:17:25;;;;;;;;;;;;;;;-144.99;87.75;52505.16;5024712;28;19982;-74
2023/03/14 11:20:18;;;;;;;;;;;;;;;-144.99;86.47;52541.84;5021583;28;20003;-74
2023/03/14 11:22:47;;;;;;;;;;;;;;;-144.99;86.71;52458.28;5020048;28;19977;-76
2023/03/14 11:25:19;;;;;;;;;;;;;;;-144.99;86.32;52492.94;5022495;28;20047;-75
2023/03/14 11:27:49;;;;;;;;;;;;;;;-144.99;84.19;52505.16;5024653;28;19994;-75
2023/03/14 11:30:18;;;;;;;;;;;;;;;-144.99;84.52;52529.63;5024806;28;20029;-74
2023/03/14 11:32:45;;;;;;;;;;;;;;;-144.99;84.87;52566.31;5023779;28;19994;-75
2023/03/14 11:35:17;;;;;;;;;;;;;;;-144.99;84.78;52541.84;5026046;28;20000;-74
2023/03/14 11:37:47;;;;;;;;;;;;;;;-144.99;85.30;52517.41;5026360;28;20029;-74
2023/03/14 11:40:14;;;;;;;;;;;;;;;-144.99;83.71;52499.06;5029041;28;20002;-74
2023/03/14 11:42:43;;;;;;;;;;;;;;;-144.99;83.10;52519.44;5028078;28;19929;-74
2023/03/14 11:45:16;;;;;;;;;;;;;;;-144.99;83.58;52580.59;5024375;28;19929;-74
2023/03/14 11:47:44;;;;;;;;;;;;;;;-144.99;82.64;52529.63;5023280;28;19929;-74
2023/03/14 11:50:16;;;;;;;;;;;;;;;-144.99;82.65;52521.47;5022527;28;19980;-74
2023/03/14 11:52:49;;;;;;;;;;;;;;;-144.99;82.42;52517.41;5018472;28;19942;-72
2023/03/14 11:55:18;;;;;;;;;;;;;;;-144.99;82.37;52505.16;5028322;28;20025;-74
2023/03/14 11:57:46;;;;;;;;;;;;;;;-144.99;82.48;52531.66;5020865;28;20034;-74
2023/03/14 12:00:16;;;;;;;;;;;;;;;-144.99;81.91;52492.94;5025150;28;20231;-74
2023/03/14 12:02:48;;;;;;;;;;;;;;;-144.99;82.35;52541.84;5022922;28;19979;-74
2023/03/14 12:05:31;;;;;;;;;;;;;;;-144.99;83.12;52550.00;5016647;28;20045;-74
2023/03/14 12:08:18;;;;;;;;;;;;;;;-144.99;82.91;52525.56;5028926;28;20412;-73
2023/03/14 12:10:48;;;;;;;;;;;;;;;-144.99;83.05;52543.91;5021315;28;19953;-73
2023/03/14 12:13:15;;;;;;;;;;;;;;;-144.99;83.41;52525.56;5028505;28;20315;-73
2023/03/14 12:15:47;;;;;;;;;;;;;;;-144.99;83.19;52507.19;5021708;28;20455;-74
2023/03/14 12:18:21;;;;;;;;;;;;;;;-144.99;83.65;52541.84;5028521;28;20454;-75
2023/03/14 12:20:52;;;;;;;;;;;;;;;-144.99;83.07;52529.63;5025698;28;20008;-75
2023/03/14 12:23:20;;;;;;;;;;;;;;;-144.99;82.76;52497.00;5024238;28;19945;-75
2023/03/14 12:25:46;;;;;;;;;;;;;;;-144.99;83.36;52513.31;5025204;28;19962;-74